createdAt,value
2022-11-10T00:00:06.675Z,8.74
2022-11-10T00:01:06.720Z,8.71
2022-11-10T00:02:06.661Z,8.59
2022-11-10T00:03:06.629Z,8.59
2022-11-10T00:04:06.694Z,8.55
2022-11-10T00:05:06.637Z,8.41
2022-11-10T00:06:06.619Z,8.35
2022-11-10T00:07:06.772Z,8.38
2022-11-10T00:08:06.664Z,8.39
2022-11-10T00:09:06.599Z,8.31
2022-11-10T00:10:06.583Z,8.31
2022-11-10T00:11:06.599Z,8.37
2022-11-10T00:12:06.670Z,8.32
2022-11-10T00:13:06.561Z,8.21
2022-11-10T00:14:06.581Z,8.17
2022-11-10T00:15:06.574Z,8.24
2022-11-10T00:16:06.547Z,8.12
2022-11-10T00:17:06.535Z,8.06
2022-11-10T00:18:06.570Z,8.04
2022-11-10T00:19:06.530Z,8.10
2022-11-10T00:20:06.525Z,7.98
2022-11-10T00:21:06.541Z,7.94
2022-11-10T00:22:06.505Z,7.96
2022-11-10T00:23:06.522Z,7.84
2022-11-10T00:24:06.492Z,7.87
2022-11-10T00:25:06.498Z,7.78
2022-11-10T00:26:06.477Z,7.86
2022-11-10T00:27:06.503Z,7.86
2022-11-10T00:28:06.475Z,7.88
2022-11-10T00:29:06.497Z,7.84
2022-11-10T00:30:06.472Z,7.91
2022-11-10T00:31:06.467Z,7.84
2022-11-10T00:32:06.456Z,7.84
2022-11-10T00:33:06.441Z,7.77
2022-11-10T00:34:06.567Z,7.68
2022-11-10T00:35:06.451Z,7.69
2022-11-10T00:36:06.419Z,7.60
2022-11-10T00:37:06.433Z,7.54
2022-11-10T00:38:06.423Z,7.55
2022-11-10T00:39:06.411Z,7.52
2022-11-10T00:40:06.416Z,7.66
2022-11-10T00:41:06.381Z,7.58
2022-11-10T00:42:06.375Z,7.42
2022-11-10T00:43:06.402Z,7.46
2022-11-10T00:44:06.387Z,7.43
2022-11-10T00:45:06.392Z,7.37
2022-11-10T00:46:06.369Z,7.42
2022-11-10T00:47:06.354Z,7.43
2022-11-10T00:48:06.349Z,7.40
2022-11-10T00:49:06.334Z,7.39
2022-11-10T00:50:06.350Z,7.42
2022-11-10T00:51:06.338Z,7.37
2022-11-10T00:52:06.325Z,7.36
2022-11-10T00:53:06.322Z,7.31
2022-11-10T00:54:06.321Z,7.36
2022-11-10T00:55:06.320Z,7.19
2022-11-10T00:56:06.332Z,7.22
2022-11-10T00:57:06.322Z,7.18
2022-11-10T00:58:06.307Z,7.15
2022-11-10T00:59:06.289Z,7.24
2022-11-10T01:00:06.273Z,7.25
2022-11-10T01:01:06.296Z,7.19
2022-11-10T01:02:06.379Z,7.26
2022-11-10T01:03:06.260Z,7.13
2022-11-10T01:04:06.260Z,7.26
2022-11-10T01:05:06.254Z,7.34
2022-11-10T01:06:06.278Z,7.28
2022-11-10T01:07:06.279Z,7.29
2022-11-10T01:08:06.244Z,7.26
2022-11-10T01:09:06.225Z,7.25
2022-11-10T01:10:06.210Z,7.36
2022-11-10T01:11:06.225Z,7.29
2022-11-10T01:12:06.204Z,7.29
2022-11-10T01:13:06.235Z,7.33
2022-11-10T01:14:06.206Z,7.29
2022-11-10T01:15:06.199Z,7.29
2022-11-10T01:16:06.183Z,7.33
2022-11-10T01:17:06.184Z,7.29
2022-11-10T01:18:06.308Z,7.25
2022-11-10T01:19:06.171Z,7.13
2022-11-10T01:20:06.162Z,7.16
2022-11-10T01:21:06.158Z,7.19
2022-11-10T01:22:06.166Z,7.24
2022-11-10T01:23:06.149Z,7.26
2022-11-10T01:24:06.172Z,7.29
2022-11-10T01:25:06.148Z,7.24
2022-11-10T01:26:06.112Z,7.19
2022-11-10T01:27:06.132Z,7.29
2022-11-10T01:28:06.128Z,7.31
2022-11-10T01:29:06.133Z,7.29
2022-11-10T01:30:06.084Z,7.47
2022-11-10T01:31:06.111Z,7.46
2022-11-10T01:32:06.101Z,7.37
2022-11-10T01:33:06.110Z,7.40
2022-11-10T01:34:06.098Z,7.49
2022-11-10T01:35:06.114Z,7.44
2022-11-10T01:36:06.073Z,7.47
2022-11-10T01:37:06.061Z,7.40
2022-11-10T01:38:06.079Z,7.44
2022-11-10T01:39:06.079Z,7.36
2022-11-10T01:40:06.105Z,7.39
2022-11-10T01:41:06.033Z,7.29
2022-11-10T01:42:06.028Z,7.36
2022-11-10T01:43:06.025Z,7.36
2022-11-10T01:44:06.020Z,7.33
2022-11-10T01:45:06.016Z,7.28
2022-11-10T01:46:06.018Z,7.39
2022-11-10T01:47:06.016Z,7.26
2022-11-10T01:48:05.995Z,7.26
2022-11-10T01:49:05.986Z,7.31
2022-11-10T01:50:06.014Z,7.25
2022-11-10T01:51:06.200Z,7.28
2022-11-10T01:52:05.998Z,7.25
2022-11-10T01:53:05.975Z,7.24
2022-11-10T01:54:05.984Z,7.06
2022-11-10T01:55:05.951Z,7.00
2022-11-10T01:56:05.957Z,6.88
2022-11-10T01:57:06.084Z,6.91
2022-11-10T01:58:05.943Z,6.93
2022-11-10T01:59:05.925Z,6.93
2022-11-10T02:00:05.926Z,6.86
2022-11-10T02:01:05.930Z,7.01
2022-11-10T02:02:05.992Z,6.85
2022-11-10T02:03:05.898Z,6.91
2022-11-10T02:04:05.904Z,6.97
2022-11-10T02:05:05.872Z,6.96
2022-11-10T02:06:05.883Z,6.89
2022-11-10T02:07:05.896Z,6.91
2022-11-10T02:08:05.914Z,6.81
2022-11-10T02:09:06.864Z,6.91
2022-11-10T02:10:05.875Z,6.89
2022-11-10T02:11:05.860Z,6.83
2022-11-10T02:12:05.877Z,6.91
2022-11-10T02:13:05.883Z,6.86
2022-11-10T02:14:05.836Z,6.71
2022-11-10T02:15:05.834Z,6.82
2022-11-10T02:16:05.811Z,6.83
2022-11-10T02:17:05.843Z,6.82
2022-11-10T02:18:05.851Z,6.82
2022-11-10T02:19:06.187Z,6.75
2022-11-10T02:20:05.794Z,6.73
2022-11-10T02:21:05.783Z,6.73
2022-11-10T02:22:05.797Z,6.65
2022-11-10T02:23:05.785Z,6.64
2022-11-10T02:24:05.816Z,6.63
2022-11-10T02:25:05.762Z,6.61
2022-11-10T02:26:05.769Z,6.67
2022-11-10T02:27:05.755Z,6.68
2022-11-10T02:28:05.751Z,6.78
2022-11-10T02:29:05.725Z,6.73
2022-11-10T02:30:05.753Z,6.78
2022-11-10T02:31:05.733Z,6.61
2022-11-10T02:32:05.731Z,6.65
2022-11-10T02:33:05.731Z,6.61
2022-11-10T02:34:05.723Z,6.53
2022-11-10T02:35:05.719Z,6.49
2022-11-10T02:36:05.700Z,6.55
2022-11-10T02:37:05.674Z,6.57
2022-11-10T02:38:05.717Z,6.63
2022-11-10T02:39:05.696Z,6.60
2022-11-10T02:40:05.692Z,6.56
2022-11-10T02:41:05.691Z,6.52
2022-11-10T02:42:05.668Z,6.53
2022-11-10T02:43:05.666Z,6.49
2022-11-10T02:44:05.656Z,6.43
2022-11-10T02:45:05.651Z,6.43
2022-11-10T02:46:05.657Z,6.47
2022-11-10T02:47:05.654Z,6.45
2022-11-10T02:48:05.606Z,6.32
2022-11-10T02:49:05.652Z,6.40
2022-11-10T02:50:05.604Z,6.42
2022-11-10T02:51:05.617Z,6.47
2022-11-10T02:52:05.631Z,6.42
2022-11-10T02:53:05.587Z,6.30
2022-11-10T02:54:05.586Z,6.42
2022-11-10T02:55:05.576Z,6.28
2022-11-10T02:56:05.590Z,6.31
2022-11-10T02:57:05.672Z,6.32
2022-11-10T02:58:05.557Z,6.21
2022-11-10T02:59:05.561Z,6.18
2022-11-10T03:00:05.559Z,6.18
2022-11-10T03:01:05.624Z,6.05
2022-11-10T03:02:05.515Z,6.15
2022-11-10T03:03:05.644Z,6.18
2022-11-10T03:04:05.529Z,6.16
2022-11-10T03:05:05.523Z,6.24
2022-11-10T03:06:05.518Z,6.15
2022-11-10T03:07:05.534Z,6.16
2022-11-10T03:08:05.627Z,6.28
2022-11-10T03:09:05.498Z,6.19
2022-11-10T03:10:05.505Z,6.30
2022-11-10T03:11:05.481Z,6.30
2022-11-10T03:12:05.491Z,6.28
2022-11-10T03:13:05.468Z,6.27
2022-11-10T03:14:05.499Z,6.16
2022-11-10T03:15:05.465Z,6.15
2022-11-10T03:16:05.460Z,6.06
2022-11-10T03:17:05.458Z,6.19
2022-11-10T03:18:05.455Z,6.12
2022-11-10T03:19:05.548Z,6.19
2022-11-10T03:20:05.434Z,6.16
2022-11-10T03:21:05.423Z,6.12
2022-11-10T03:22:05.423Z,6.08
2022-11-10T03:23:05.407Z,6.15
2022-11-10T03:24:05.406Z,6.08
2022-11-10T03:25:05.429Z,6.06
2022-11-10T03:26:05.385Z,6.00
2022-11-10T03:27:05.394Z,6.13
2022-11-10T03:28:05.372Z,6.06
2022-11-10T03:29:05.379Z,6.05
2022-11-10T03:30:05.428Z,6.08
2022-11-10T03:31:05.384Z,6.11
2022-11-10T03:32:05.365Z,6.03
2022-11-10T03:33:05.366Z,6.11
2022-11-10T03:34:05.347Z,6.05
2022-11-10T03:35:05.336Z,5.97
2022-11-10T03:36:05.364Z,5.98
2022-11-10T03:37:05.320Z,6.02
2022-11-10T03:38:05.313Z,6.08
2022-11-10T03:39:05.306Z,6.06
2022-11-10T03:40:05.318Z,6.00
2022-11-10T03:41:19.209Z,6.09
2022-11-10T03:42:07.324Z,6.11
2022-11-10T03:43:05.288Z,5.91
2022-11-10T03:44:05.297Z,5.95
2022-11-10T03:45:05.288Z,6.02
2022-11-10T03:46:05.277Z,6.00
2022-11-10T03:47:05.369Z,6.11
2022-11-10T03:48:05.251Z,6.09
2022-11-10T03:49:05.242Z,6.09
2022-11-10T03:50:05.264Z,6.08
2022-11-10T03:51:05.244Z,6.12
2022-11-10T03:52:05.339Z,6.11
2022-11-10T03:53:05.248Z,6.15
2022-11-10T03:54:05.239Z,6.15
2022-11-10T03:55:05.223Z,6.21
2022-11-10T03:56:05.215Z,6.16
2022-11-10T03:57:05.197Z,6.19
2022-11-10T03:58:05.301Z,6.28
2022-11-10T03:59:05.221Z,6.16
2022-11-10T04:00:05.311Z,6.30
2022-11-10T04:01:05.179Z,6.28
2022-11-10T04:02:05.212Z,6.32
2022-11-10T04:03:05.188Z,6.32
2022-11-10T04:04:05.150Z,6.34
2022-11-10T04:05:05.139Z,6.31
2022-11-10T04:06:05.131Z,6.42
2022-11-10T04:07:05.343Z,6.50
2022-11-10T04:08:05.135Z,6.46
2022-11-10T04:09:05.126Z,6.50
2022-11-10T04:10:05.116Z,6.56
2022-11-10T04:11:05.099Z,6.61
2022-11-10T04:12:05.107Z,6.63
2022-11-10T04:13:05.087Z,6.61
2022-11-10T04:14:05.118Z,6.65
2022-11-10T04:15:05.087Z,6.75
2022-11-10T04:16:05.083Z,6.74
2022-11-10T04:17:05.095Z,6.75
2022-11-10T04:18:05.110Z,6.81
2022-11-10T04:19:05.073Z,6.78
2022-11-10T04:20:05.086Z,6.79
2022-11-10T04:21:05.046Z,6.81
2022-11-10T04:22:05.039Z,6.83
2022-11-10T04:23:05.038Z,6.85
2022-11-10T04:24:05.035Z,6.74
2022-11-10T04:25:05.159Z,6.74
2022-11-10T04:26:05.024Z,6.67
2022-11-10T04:27:05.025Z,6.61
2022-11-10T04:28:05.011Z,6.63
2022-11-10T04:29:04.983Z,6.60
2022-11-10T04:30:04.990Z,6.68
2022-11-10T04:31:05.006Z,6.60
2022-11-10T04:32:04.979Z,6.61
2022-11-10T04:33:04.985Z,6.61
2022-11-10T04:34:04.979Z,6.60
2022-11-10T04:35:04.978Z,6.60
2022-11-10T04:36:04.984Z,6.61
2022-11-10T04:37:04.943Z,6.49
2022-11-10T04:38:04.957Z,6.42
2022-11-10T04:39:04.948Z,6.45
2022-11-10T04:40:04.928Z,6.50
2022-11-10T04:41:04.931Z,6.31
2022-11-10T04:42:05.372Z,6.28
2022-11-10T04:43:04.925Z,6.19
2022-11-10T04:44:04.896Z,6.31
2022-11-10T04:45:04.909Z,6.19
2022-11-10T04:46:04.914Z,6.12
2022-11-10T04:47:10.576Z,6.27
2022-11-10T04:48:06.887Z,6.21
2022-11-10T04:49:04.870Z,6.15
2022-11-10T04:50:04.874Z,6.30
2022-11-10T04:51:04.871Z,6.27
2022-11-10T04:52:04.909Z,6.31
2022-11-10T04:53:04.886Z,6.28
2022-11-10T04:54:04.927Z,6.25
2022-11-10T04:55:04.877Z,6.27
2022-11-10T04:56:04.908Z,6.30
2022-11-10T04:57:04.827Z,6.25
2022-11-10T04:58:05.669Z,6.15
2022-11-10T04:59:04.817Z,6.19
2022-11-10T05:00:04.829Z,6.25
2022-11-10T05:01:04.842Z,6.24
2022-11-10T05:02:04.806Z,6.31
2022-11-10T05:03:04.795Z,6.27
2022-11-10T05:04:04.807Z,6.25
2022-11-10T05:05:04.808Z,6.25
2022-11-10T05:06:04.763Z,6.34
2022-11-10T05:07:04.809Z,6.27
2022-11-10T05:08:04.777Z,6.27
2022-11-10T05:09:04.751Z,6.24
2022-11-10T05:10:04.747Z,6.24
2022-11-10T05:11:04.755Z,6.28
2022-11-10T05:12:04.749Z,6.19
2022-11-10T05:13:04.732Z,6.35
2022-11-10T05:14:04.732Z,6.25
2022-11-10T05:15:04.735Z,6.34
2022-11-10T05:16:04.687Z,6.24
2022-11-10T05:17:04.718Z,6.37
2022-11-10T05:18:04.713Z,6.30
2022-11-10T05:19:04.689Z,6.31
2022-11-10T05:20:04.687Z,6.28
2022-11-10T05:21:04.698Z,6.32
2022-11-10T05:22:04.677Z,6.37
2022-11-10T05:23:04.686Z,6.30
2022-11-10T05:24:04.662Z,6.19
2022-11-10T05:25:04.665Z,6.25
2022-11-10T05:26:04.660Z,6.25
2022-11-10T05:27:04.681Z,6.18
2022-11-10T05:28:04.656Z,6.21
2022-11-10T05:29:04.619Z,6.12
2022-11-10T05:30:04.629Z,6.15
2022-11-10T05:31:04.616Z,6.05
2022-11-10T05:32:04.612Z,6.15
2022-11-10T05:33:04.614Z,6.09
2022-11-10T05:34:04.604Z,6.24
2022-11-10T05:35:04.589Z,6.18
2022-11-10T05:36:04.579Z,6.05
2022-11-10T05:37:04.588Z,5.91
2022-11-10T05:38:04.596Z,6.03
2022-11-10T05:39:04.578Z,6.03
2022-11-10T05:40:04.557Z,6.11
2022-11-10T05:41:04.557Z,6.02
2022-11-10T05:42:04.566Z,6.11
2022-11-10T05:43:04.556Z,6.16
2022-11-10T05:44:04.540Z,6.18
2022-11-10T05:45:04.531Z,6.12
2022-11-10T05:46:04.538Z,6.21
2022-11-10T05:47:04.574Z,6.18
2022-11-10T05:48:04.512Z,6.12
2022-11-10T05:49:04.508Z,6.09
2022-11-10T05:50:04.500Z,6.21
2022-11-10T05:51:04.497Z,6.09
2022-11-10T05:52:04.498Z,6.09
2022-11-10T05:53:04.503Z,6.24
2022-11-10T05:54:04.508Z,6.13
2022-11-10T05:55:04.476Z,6.11
2022-11-10T05:56:04.465Z,6.12
2022-11-10T05:57:04.474Z,6.03
2022-11-10T05:58:04.467Z,6.05
2022-11-10T05:59:07.233Z,6.12
2022-11-10T06:00:04.464Z,5.94
2022-11-10T06:01:04.441Z,5.93
2022-11-10T06:02:04.451Z,5.88
2022-11-10T06:03:04.502Z,5.88
2022-11-10T06:04:04.491Z,5.73
2022-11-10T06:05:04.410Z,5.79
2022-11-10T06:06:05.355Z,5.76
2022-11-10T06:07:04.589Z,5.84
2022-11-10T06:08:04.404Z,5.76
2022-11-10T06:09:05.367Z,5.84
2022-11-10T06:10:04.383Z,5.93
2022-11-10T06:11:04.379Z,5.94
2022-11-10T06:12:04.388Z,5.93
2022-11-10T06:13:04.365Z,6.00
2022-11-10T06:14:04.345Z,5.94
2022-11-10T06:15:04.351Z,5.95
2022-11-10T06:16:04.316Z,5.97
2022-11-10T06:17:04.352Z,5.97
2022-11-10T06:18:04.348Z,5.98
2022-11-10T06:19:04.314Z,5.90
2022-11-10T06:20:04.322Z,6.06
2022-11-10T06:21:04.305Z,5.94
2022-11-10T06:22:07.657Z,5.93
2022-11-10T06:23:05.408Z,5.97
2022-11-10T06:24:04.356Z,5.97
2022-11-10T06:25:04.275Z,6.12
2022-11-10T06:26:04.311Z,6.05
2022-11-10T06:27:04.279Z,6.11
2022-11-10T06:28:04.275Z,6.03
2022-11-10T06:29:04.283Z,6.06
2022-11-10T06:30:04.250Z,6.18
2022-11-10T06:31:04.242Z,6.25
2022-11-10T06:32:04.258Z,6.18
2022-11-10T06:33:04.247Z,6.24
2022-11-10T06:34:04.219Z,6.21
2022-11-10T06:35:04.220Z,6.24
2022-11-10T06:36:04.223Z,6.24
2022-11-10T06:37:04.228Z,6.34
2022-11-10T06:38:04.220Z,6.25
2022-11-10T06:39:04.212Z,6.40
2022-11-10T06:40:04.204Z,6.34
2022-11-10T06:41:04.200Z,6.43
2022-11-10T06:42:04.202Z,6.34
2022-11-10T06:43:04.177Z,6.34
2022-11-10T06:44:04.155Z,6.35
2022-11-10T06:45:04.170Z,6.35
2022-11-10T06:46:04.150Z,6.38
2022-11-10T06:47:04.125Z,6.30
2022-11-10T06:48:05.263Z,6.27
2022-11-10T06:49:04.153Z,6.27
2022-11-10T06:50:04.121Z,6.21
2022-11-10T06:51:04.119Z,6.27
2022-11-10T06:52:04.122Z,6.27
2022-11-10T06:53:04.113Z,6.32
2022-11-10T06:54:04.239Z,6.32
2022-11-10T06:55:04.105Z,6.38
2022-11-10T06:56:04.088Z,6.28
2022-11-10T06:57:04.102Z,6.40
2022-11-10T06:58:04.090Z,6.30
2022-11-10T06:59:04.082Z,6.46
2022-11-10T07:00:04.068Z,6.50
2022-11-10T07:01:04.109Z,6.47
2022-11-10T07:02:04.065Z,6.43
2022-11-10T07:03:04.072Z,6.55
2022-11-10T07:04:19.162Z,6.53
2022-11-10T07:05:06.149Z,6.53
2022-11-10T07:06:04.010Z,6.52
2022-11-10T07:07:04.049Z,6.57
2022-11-10T07:08:03.995Z,6.61
2022-11-10T07:09:04.006Z,6.61
2022-11-10T07:10:06.963Z,6.73
2022-11-10T07:11:05.035Z,6.60
2022-11-10T07:12:03.978Z,6.60
2022-11-10T07:13:03.975Z,6.61
2022-11-10T07:14:03.980Z,6.64
2022-11-10T07:15:03.983Z,6.60
2022-11-10T07:16:03.982Z,6.61
2022-11-10T07:17:04.006Z,6.65
2022-11-10T07:18:03.947Z,6.63
2022-11-10T07:19:03.935Z,6.67
2022-11-10T07:20:04.939Z,6.65
2022-11-10T07:21:03.977Z,6.81
2022-11-10T07:22:09.671Z,6.74
2022-11-10T07:23:05.917Z,6.73
2022-11-10T07:24:03.911Z,6.89
2022-11-10T07:25:03.903Z,6.99
2022-11-10T07:26:03.909Z,7.01
2022-11-10T07:27:03.908Z,7.00
2022-11-10T07:28:03.912Z,6.97
2022-11-10T07:29:03.894Z,7.07
2022-11-10T07:30:03.869Z,7.10
2022-11-10T07:31:03.873Z,7.18
2022-11-10T07:32:03.877Z,7.16
2022-11-10T07:33:03.862Z,7.26
2022-11-10T07:34:03.838Z,7.31
2022-11-10T07:35:03.847Z,7.29
2022-11-10T07:36:03.849Z,7.44
2022-11-10T07:37:03.832Z,7.40
2022-11-10T07:38:03.827Z,7.40
2022-11-10T07:39:04.696Z,7.36
2022-11-10T07:40:03.796Z,7.36
2022-11-10T07:41:03.847Z,7.64
2022-11-10T07:42:03.820Z,7.55
2022-11-10T07:43:03.794Z,7.49
2022-11-10T07:44:03.791Z,7.61
2022-11-10T07:45:03.811Z,7.49
2022-11-10T07:46:03.786Z,7.36
2022-11-10T07:47:03.780Z,7.31
2022-11-10T07:48:03.761Z,7.39
2022-11-10T07:49:03.756Z,7.62
2022-11-10T07:50:03.767Z,7.78
2022-11-10T07:51:03.762Z,8.32
2022-11-10T07:52:03.746Z,8.74
2022-11-10T07:53:04.736Z,8.92
2022-11-10T07:54:03.718Z,9.03
2022-11-10T07:55:03.717Z,9.14
2022-11-10T07:56:03.716Z,9.60
2022-11-10T07:57:04.737Z,10.36
2022-11-10T07:58:03.719Z,11.22
2022-11-10T07:59:03.689Z,11.96
2022-11-10T08:00:04.690Z,12.84
2022-11-10T08:01:03.688Z,13.83
2022-11-10T08:02:03.761Z,14.66
2022-11-10T08:03:03.688Z,15.48
2022-11-10T08:04:03.662Z,16.05
2022-11-10T08:05:03.664Z,16.47
2022-11-10T08:06:03.675Z,16.29
2022-11-10T08:07:03.720Z,16.34
2022-11-10T08:08:03.642Z,16.59
2022-11-10T08:09:03.634Z,17.01
2022-11-10T08:10:03.641Z,17.31
2022-11-10T08:11:03.641Z,17.91
2022-11-10T08:12:03.634Z,18.27
2022-11-10T08:13:03.600Z,18.61
2022-11-10T08:14:03.609Z,18.39
2022-11-10T08:15:03.597Z,17.78
2022-11-10T08:16:03.607Z,17.86
2022-11-10T08:17:03.617Z,17.69
2022-11-10T08:18:03.597Z,17.52
2022-11-10T08:19:03.581Z,18.08
2022-11-10T08:20:03.563Z,18.49
2022-11-10T08:21:03.581Z,18.49
2022-11-10T08:22:03.586Z,18.58
2022-11-10T08:23:03.556Z,19.13
2022-11-10T08:24:03.545Z,18.67
2022-11-10T08:25:03.542Z,18.11
2022-11-10T08:26:03.558Z,17.88
2022-11-10T08:27:03.554Z,17.46
2022-11-10T08:28:03.521Z,17.01
2022-11-10T08:29:03.543Z,17.65
2022-11-10T08:30:03.514Z,17.37
2022-11-10T08:31:05.741Z,16.76
2022-11-10T08:32:03.506Z,15.77
2022-11-10T08:33:03.496Z,15.14
2022-11-10T08:34:03.513Z,14.93
2022-11-10T08:35:03.478Z,14.83
2022-11-10T08:36:03.489Z,14.82
2022-11-10T08:37:03.486Z,15.65
2022-11-10T08:38:08.959Z,15.15
2022-11-10T08:39:05.461Z,15.95
2022-11-10T08:40:03.453Z,16.26
2022-11-10T08:41:03.482Z,16.73
2022-11-10T08:42:03.476Z,17.94
2022-11-10T08:43:03.443Z,18.20
2022-11-10T08:44:04.123Z,18.13
2022-11-10T08:45:03.450Z,18.28
2022-11-10T08:46:03.439Z,19.30
2022-11-10T08:47:03.423Z,19.37
2022-11-10T08:48:03.418Z,19.47
2022-11-10T08:49:03.390Z,19.70
2022-11-10T08:50:03.379Z,20.04
2022-11-10T08:51:03.394Z,18.88
2022-11-10T08:52:03.391Z,17.73
2022-11-10T08:53:03.364Z,17.91
2022-11-10T08:54:03.377Z,17.75
2022-11-10T08:55:03.358Z,18.52
2022-11-10T08:56:03.391Z,18.78
2022-11-10T08:57:03.404Z,18.52
2022-11-10T08:58:03.336Z,17.01
2022-11-10T08:59:03.342Z,17.66
2022-11-10T09:00:03.324Z,18.33
2022-11-10T09:01:03.335Z,17.75
2022-11-10T09:02:03.327Z,17.86
2022-11-10T09:03:03.315Z,18.71
2022-11-10T09:04:03.317Z,18.45
2022-11-10T09:05:03.459Z,18.05
2022-11-10T09:06:03.302Z,16.95
2022-11-10T09:07:03.304Z,17.13
2022-11-10T09:08:03.297Z,17.72
2022-11-10T09:09:03.346Z,18.27
2022-11-10T09:10:07.615Z,18.46
2022-11-10T09:11:04.381Z,18.86
2022-11-10T09:12:03.255Z,20.53
2022-11-10T09:13:03.269Z,21.04
2022-11-10T09:14:03.285Z,21.56
2022-11-10T09:15:03.263Z,21.78
2022-11-10T09:16:03.254Z,21.97
2022-11-10T09:17:03.333Z,22.77
2022-11-10T09:18:03.242Z,23.10
2022-11-10T09:19:03.234Z,22.04
2022-11-10T09:20:03.317Z,21.00
2022-11-10T09:21:03.231Z,20.85
2022-11-10T09:22:03.346Z,19.71
2022-11-10T09:23:03.193Z,18.61
2022-11-10T09:24:03.192Z,17.86
2022-11-10T09:25:03.178Z,17.24
2022-11-10T09:26:03.170Z,16.49
2022-11-10T09:27:03.176Z,16.10
2022-11-10T09:28:03.189Z,15.72
2022-11-10T09:29:03.164Z,15.32
2022-11-10T09:30:03.159Z,15.04
2022-11-10T09:31:03.171Z,15.05
2022-11-10T09:32:03.175Z,14.92
2022-11-10T09:33:03.188Z,14.66
2022-11-10T09:34:03.137Z,14.59
2022-11-10T09:35:03.134Z,14.52
2022-11-10T09:36:03.126Z,14.27
2022-11-10T09:37:03.117Z,14.11
2022-11-10T09:38:03.131Z,14.03
2022-11-10T09:39:03.216Z,13.90
2022-11-10T09:40:03.104Z,13.58
2022-11-10T09:41:03.147Z,13.42
2022-11-10T09:42:03.090Z,12.95
2022-11-10T09:43:03.084Z,12.59
2022-11-10T09:44:03.131Z,12.58
2022-11-10T09:45:03.075Z,12.69
2022-11-10T09:46:03.070Z,12.73
2022-11-10T09:47:03.053Z,12.90
2022-11-10T09:48:03.051Z,12.84
2022-11-10T09:49:03.046Z,12.88
2022-11-10T09:50:03.058Z,13.11
2022-11-10T09:51:03.040Z,13.21
2022-11-10T09:52:03.031Z,13.24
2022-11-10T09:53:03.055Z,13.38
2022-11-10T09:54:03.032Z,13.32
2022-11-10T09:55:03.027Z,13.26
2022-11-10T09:56:02.994Z,13.32
2022-11-10T09:57:03.000Z,13.23
2022-11-10T09:58:03.014Z,13.05
2022-11-10T09:59:02.970Z,12.90
2022-11-10T10:00:02.980Z,12.79
2022-11-10T10:01:03.036Z,12.84
2022-11-10T10:02:02.962Z,12.99
2022-11-10T10:03:02.966Z,12.90
2022-11-10T10:04:02.952Z,12.81
2022-11-10T10:05:02.937Z,12.50
2022-11-10T10:06:03.134Z,12.44
2022-11-10T10:07:11.268Z,12.46
2022-11-10T10:08:04.940Z,12.47
2022-11-10T10:09:02.932Z,12.81
2022-11-10T10:10:02.959Z,13.24
2022-11-10T10:11:02.920Z,13.38
2022-11-10T10:12:03.053Z,13.27
2022-11-10T10:13:02.900Z,13.42
2022-11-10T10:14:02.908Z,13.30
2022-11-10T10:15:02.903Z,13.38
2022-11-10T10:16:02.889Z,13.30
2022-11-10T10:17:02.912Z,13.24
2022-11-10T10:18:02.887Z,13.27
2022-11-10T10:19:02.866Z,13.45
2022-11-10T10:20:02.874Z,13.64
2022-11-10T10:21:02.864Z,13.61
2022-11-10T10:22:02.854Z,13.58
2022-11-10T10:23:02.895Z,13.57
2022-11-10T10:24:10.240Z,13.55
2022-11-10T10:25:04.916Z,13.58
2022-11-10T10:26:02.848Z,13.49
2022-11-10T10:27:02.818Z,13.53
2022-11-10T10:28:02.855Z,13.40
2022-11-10T10:29:02.807Z,13.35
2022-11-10T10:30:02.808Z,13.21
2022-11-10T10:31:02.795Z,13.16
2022-11-10T10:32:02.806Z,13.20
2022-11-10T10:33:02.787Z,13.27
2022-11-10T10:34:02.897Z,13.19
2022-11-10T10:35:02.772Z,13.08
2022-11-10T10:36:02.763Z,13.35
2022-11-10T10:37:03.778Z,13.39
2022-11-10T10:38:03.764Z,13.40
2022-11-10T10:39:02.777Z,13.65
2022-11-10T10:40:02.867Z,13.61
2022-11-10T10:41:02.774Z,13.55
2022-11-10T10:42:02.727Z,13.67
2022-11-10T10:43:02.744Z,13.72
2022-11-10T10:44:02.758Z,13.63
2022-11-10T10:45:02.852Z,13.53
2022-11-10T10:46:02.717Z,13.51
2022-11-10T10:47:02.706Z,13.58
2022-11-10T10:48:02.703Z,13.78
2022-11-10T10:49:26.730Z,13.91
2022-11-10T10:50:02.723Z,14.16
2022-11-10T10:51:02.682Z,14.53
2022-11-10T10:52:02.653Z,14.48
2022-11-10T10:53:02.666Z,14.28
2022-11-10T10:54:02.662Z,14.03
2022-11-10T10:55:02.643Z,13.86
2022-11-10T10:56:02.764Z,13.58
2022-11-10T10:57:02.641Z,13.64
2022-11-10T10:58:02.652Z,13.76
2022-11-10T10:59:02.633Z,13.91
2022-11-10T11:00:02.633Z,14.01
2022-11-10T11:01:02.687Z,14.27
2022-11-10T11:02:02.605Z,14.26
2022-11-10T11:03:04.631Z,14.27
2022-11-10T11:04:02.601Z,14.15
2022-11-10T11:05:02.617Z,14.03
2022-11-10T11:06:02.614Z,13.90
2022-11-10T11:07:02.660Z,13.90
2022-11-10T11:08:02.571Z,13.79
2022-11-10T11:09:02.576Z,13.71
2022-11-10T11:10:02.593Z,13.49
2022-11-10T11:11:02.563Z,13.35
2022-11-10T11:12:02.784Z,13.19
2022-11-10T11:13:02.559Z,13.13
2022-11-10T11:14:02.552Z,13.04
2022-11-10T11:15:02.567Z,13.06
2022-11-10T11:16:02.533Z,13.04
2022-11-10T11:17:02.580Z,13.05
2022-11-10T11:18:02.657Z,13.09
2022-11-10T11:19:02.506Z,13.88
2022-11-10T11:20:02.509Z,14.11
2022-11-10T11:21:02.510Z,15.03
2022-11-10T11:22:02.525Z,16.05
2022-11-10T11:23:02.531Z,16.82
2022-11-10T11:24:02.507Z,17.54
2022-11-10T11:25:02.465Z,18.36
2022-11-10T11:26:02.473Z,17.96
2022-11-10T11:27:02.478Z,18.23
2022-11-10T11:28:02.491Z,18.81
2022-11-10T11:29:02.492Z,19.13
2022-11-10T11:30:02.435Z,19.62
2022-11-10T11:31:02.436Z,19.52
2022-11-10T11:32:02.430Z,19.71
2022-11-10T11:33:02.444Z,19.75
2022-11-10T11:34:02.559Z,19.63
2022-11-10T11:35:02.423Z,19.37
2022-11-10T11:36:02.415Z,18.63
2022-11-10T11:37:06.899Z,17.69
2022-11-10T11:38:03.401Z,17.68
2022-11-10T11:39:02.402Z,17.16
2022-11-10T11:40:02.418Z,17.02
2022-11-10T11:41:02.387Z,17.19
2022-11-10T11:42:02.385Z,17.30
2022-11-10T11:43:02.375Z,16.73
2022-11-10T11:44:02.356Z,15.98
2022-11-10T11:45:02.455Z,15.44
2022-11-10T11:46:02.346Z,15.15
2022-11-10T11:47:02.351Z,14.83
2022-11-10T11:48:02.355Z,14.96
2022-11-10T11:49:02.332Z,15.87
2022-11-10T11:50:02.340Z,15.40
2022-11-10T11:51:02.360Z,15.10
2022-11-10T11:52:02.399Z,16.10
2022-11-10T11:53:02.321Z,15.96
2022-11-10T11:54:02.363Z,15.44
2022-11-10T11:55:02.306Z,14.96
2022-11-10T11:56:02.383Z,14.49
2022-11-10T11:57:02.287Z,14.78
2022-11-10T11:58:02.272Z,14.44
2022-11-10T11:59:02.277Z,14.00
2022-11-10T12:00:36.360Z,14.31
2022-11-10T12:01:02.263Z,15.47
2022-11-10T12:02:02.450Z,16.39
2022-11-10T12:03:02.299Z,17.04
2022-11-10T12:04:02.240Z,17.69
2022-11-10T12:05:02.256Z,17.53
2022-11-10T12:06:02.235Z,17.02
2022-11-10T12:07:02.285Z,16.54
2022-11-10T12:08:02.212Z,16.24
2022-11-10T12:09:02.210Z,16.59
2022-11-10T12:10:02.198Z,16.46
2022-11-10T12:11:02.207Z,16.33
2022-11-10T12:12:02.211Z,15.72
2022-11-10T12:13:02.298Z,15.14
2022-11-10T12:14:02.206Z,14.73
2022-11-10T12:15:02.186Z,14.51
2022-11-10T12:16:02.173Z,14.30
2022-11-10T12:17:36.891Z,14.49
2022-11-10T12:18:02.292Z,14.86
2022-11-10T12:19:02.180Z,14.59
2022-11-10T12:20:02.183Z,14.70
2022-11-10T12:21:02.145Z,14.37
2022-11-10T12:22:02.146Z,14.19
2022-11-10T12:23:02.138Z,14.11
2022-11-10T12:24:07.358Z,13.97
2022-11-10T12:25:03.137Z,14.09
2022-11-10T12:26:02.159Z,14.22
2022-11-10T12:27:02.120Z,14.44
2022-11-10T12:28:02.109Z,14.53
2022-11-10T12:29:02.155Z,14.13
2022-11-10T12:30:02.108Z,14.04
2022-11-10T12:31:02.321Z,13.73
2022-11-10T12:32:02.077Z,13.82
2022-11-10T12:33:02.069Z,14.12
2022-11-10T12:34:02.065Z,15.10
2022-11-10T12:35:03.210Z,15.43
2022-11-10T12:36:02.397Z,15.01
2022-11-10T12:37:02.046Z,14.77
2022-11-10T12:38:02.054Z,14.41
2022-11-10T12:39:02.116Z,14.18
2022-11-10T12:40:02.074Z,14.15
2022-11-10T12:41:20.955Z,14.27
2022-11-10T12:42:02.018Z,14.45
2022-11-10T12:43:02.020Z,14.48
2022-11-10T12:44:02.009Z,14.40
2022-11-10T12:45:01.987Z,14.09
2022-11-10T12:46:02.099Z,13.91
2022-11-10T12:47:01.985Z,13.75
2022-11-10T12:48:01.982Z,13.53
2022-11-10T12:49:02.000Z,13.79
2022-11-10T12:50:02.012Z,13.94
2022-11-10T12:51:01.963Z,13.91
2022-11-10T12:52:02.072Z,13.83
2022-11-10T12:53:03.191Z,13.68
2022-11-10T12:54:01.954Z,13.47
2022-11-10T12:55:01.940Z,13.32
2022-11-10T12:56:01.938Z,13.24
2022-11-10T12:57:02.094Z,13.26
2022-11-10T12:58:01.924Z,13.21
2022-11-10T12:59:01.915Z,13.30
2022-11-10T13:00:01.931Z,13.19
2022-11-10T13:01:01.973Z,13.21
2022-11-10T13:02:01.924Z,13.51
2022-11-10T13:03:01.996Z,13.42
2022-11-10T13:04:01.887Z,13.40
2022-11-10T13:05:01.865Z,13.35
2022-11-10T13:06:01.880Z,13.35
2022-11-10T13:07:01.900Z,13.53
2022-11-10T13:08:01.899Z,13.42